Time;durP1;ratioP1;P1;durP2;ratioP2;P2;SDS_P1;SDS_P2;PMS_P1;PMS_P2;Temp;Humidity;BMP_temperature;BMP_pressure;BME280_temperature;BME280_humidity;BME280_pressure;Samples;Min_cycle;Max_cycle;Signal;HPM_P1;HPM_P2
2022/02/06 00:01:43;;;;;;;13.00;3.20;;;11.30;76.30;;;;;;5038627;28;20040;-55
2022/02/06 00:04:09;;;;;;;12.77;3.50;;;11.30;75.10;;;;;;5038526;28;20104;-50
2022/02/06 00:06:36;;;;;;;12.80;3.10;;;11.30;77.20;;;;;;5038502;28;20034;-53
2022/02/06 00:09:02;;;;;;;14.73;3.30;;;11.30;76.30;;;;;;5038412;28;20021;-52
2022/02/06 00:11:28;;;;;;;16.08;3.50;;;11.30;76.10;;;;;;5038221;28;20033;-52
2022/02/06 00:13:55;;;;;;;21.08;4.43;;;11.30;76.40;;;;;;5038131;28;20029;-52
2022/02/06 00:16:21;;;;;;;14.57;3.45;;;11.30;75.80;;;;;;5038057;28;20014;-56
2022/02/06 00:18:46;;;;;;;15.63;3.35;;;11.30;77.30;;;;;;5038132;28;20020;-55
2022/02/06 00:21:15;;;;;;;18.70;4.53;;;11.30;77.60;;;;;;5037996;28;20026;-53
2022/02/06 00:23:43;;;;;;;17.13;3.17;;;11.30;77.10;;;;;;5038437;28;20358;-54
2022/02/06 00:26:23;;;;;;;14.63;3.35;;;11.30;76.60;;;;;;5037997;28;20568;-50
2022/02/06 00:29:12;;;;;;;12.90;3.95;;;11.30;76.90;;;;;;5038015;28;20021;-54
2022/02/06 00:32:24;;;;;;;22.27;4.60;;;11.30;77.10;;;;;;5037426;28;20076;-51
2022/02/06 00:39:48;;;;;;;17.38;4.43;;;11.30;77.40;;;;;;5037894;28;20554;-56
2022/02/06 00:42:14;;;;;;;17.00;3.33;;;11.30;77.20;;;;;;5037890;28;20033;-56
2022/02/06 00:44:39;;;;;;;18.20;4.05;;;11.30;77.10;;;;;;5037487;28;20444;-52
2022/02/06 00:47:05;;;;;;;19.20;4.15;;;11.30;78.50;;;;;;5037690;28;20109;-52
2022/02/06 00:49:32;;;;;;;16.88;4.00;;;11.30;77.50;;;;;;5037605;28;20033;-50
2022/02/06 00:52:11;;;;;;;18.42;3.30;;;11.30;77.20;;;;;;5036217;28;20033;-51
2022/02/06 00:54:36;;;;;;;16.83;4.07;;;11.30;77.90;;;;;;5037548;28;20034;-51
2022/02/06 00:57:02;;;;;;;13.90;3.00;;;11.30;77.10;;;;;;5037483;28;20073;-54
2022/02/06 00:59:28;;;;;;;14.98;4.45;;;11.30;77.30;;;;;;5037518;28;20030;-53
2022/02/06 01:01:54;;;;;;;17.50;3.70;;;11.40;76.10;;;;;;5037672;28;20370;-51
2022/02/06 01:04:20;;;;;;;14.35;3.28;;;11.30;77.50;;;;;;5037382;28;20479;-51
2022/02/06 01:06:46;;;;;;;14.77;3.25;;;11.30;77.40;;;;;;5036064;28;20436;-53
2022/02/06 01:09:13;;;;;;;14.55;3.50;;;11.30;77.60;;;;;;5037548;28;20044;-53
2022/02/06 01:11:39;;;;;;;14.30;3.63;;;11.40;77.00;;;;;;5037564;28;20064;-55
2022/02/06 01:16:45;;;;;;;22.90;4.95;;;11.30;78.50;;;;;;5037240;28;20026;-52
2022/02/06 01:19:17;;;;;;;15.48;4.15;;;11.30;78.00;;;;;;5037223;28;20480;-50
2022/02/06 01:24:40;;;;;;;16.65;3.53;;;11.20;79.30;;;;;;5037418;28;20075;-56
2022/02/06 01:27:08;;;;;;;18.83;4.28;;;11.20;79.60;;;;;;5036903;28;20412;-53
2022/02/06 01:29:43;;;;;;;19.65;3.95;;;11.10;78.60;;;;;;5037097;28;20461;-51
2022/02/06 01:32:16;;;;;;;21.45;3.83;;;11.20;78.90;;;;;;5037655;28;20140;-51
2022/02/06 01:35:08;;;;;;;17.23;3.70;;;11.10;78.80;;;;;;5037180;28;20057;-53
2022/02/06 01:37:57;;;;;;;11.38;3.22;;;11.10;79.50;;;;;;5036874;28;20026;-52
2022/02/06 01:43:03;;;;;;;19.38;4.13;;;11.10;79.20;;;;;;5038587;28;20370;-50
2022/02/06 01:45:52;;;;;;;19.10;3.60;;;11.10;79.80;;;;;;5040845;28;20072;-54
2022/02/06 02:08:26;;;;;;;16.35;3.83;;;11.10;81.70;;;;;;5050042;28;20410;-51
2022/02/06 02:11:02;;;;;;;19.13;3.47;;;11.10;78.90;;;;;;5040375;28;20025;-53
2022/02/06 02:13:45;;;;;;;20.08;4.75;;;11.10;80.80;;;;;;5040415;28;20034;-54
2022/02/06 02:19:19;;;;;;;14.27;3.70;;;11.10;80.60;;;;;;5040772;28;20362;-50
2022/02/06 02:45:38;;;;;;;16.30;3.50;;;11.10;81.50;;;;;;5040121;28;20037;-53
2022/02/06 02:48:06;;;;;;;18.15;4.03;;;11.00;81.90;;;;;;5040011;28;20033;-51
2022/02/06 02:50:36;;;;;;;13.27;3.42;;;11.00;83.50;;;;;;5040262;28;20048;-54
2022/02/06 02:56:39;;;;;;;18.83;3.85;;;11.00;82.70;;;;;;5039931;28;20030;-52
2022/02/06 02:58:46;;;;;;;15.63;3.83;;;11.00;83.10;;;;;;5043368;28;20033;-53
2022/02/06 03:01:29;;;;;;;24.25;5.43;;;11.00;83.40;;;;;;5039636;28;20032;-51
2022/02/06 03:03:55;;;;;;;19.83;4.13;;;11.00;83.20;;;;;;5039294;28;20025;-52
2022/02/06 03:06:21;;;;;;;20.98;4.50;;;11.00;83.40;;;;;;5039698;28;20032;-51
2022/02/06 03:08:48;;;;;;;17.23;4.35;;;11.00;82.00;;;;;;5039365;28;20045;-53
2022/02/06 03:11:14;;;;;;;20.35;4.10;;;11.00;83.30;;;;;;5039659;28;20069;-54
2022/02/06 03:13:55;;;;;;;15.02;4.38;;;11.00;82.90;;;;;;5039604;28;20026;-51
2022/02/06 03:21:22;;;;;;;15.63;4.20;;;11.10;82.30;;;;;;5038978;28;20029;-55
2022/02/06 03:23:53;;;;;;;17.85;5.15;;;11.10;83.20;;;;;;5039218;28;20160;-53
2022/02/06 03:26:19;;;;;;;22.05;4.95;;;11.10;81.70;;;;;;5038915;28;20409;-54
2022/02/06 03:28:46;;;;;;;16.85;4.28;;;11.10;81.60;;;;;;5039548;28;20029;-51
2022/02/06 03:31:12;;;;;;;17.98;4.75;;;11.10;81.40;;;;;;5039089;28;20022;-50
2022/02/06 03:33:38;;;;;;;17.80;4.75;;;11.10;81.50;;;;;;5038928;28;20472;-54
2022/02/06 03:36:04;;;;;;;20.40;5.15;;;11.00;82.10;;;;;;5039173;28;20022;-51
2022/02/06 03:38:30;;;;;;;26.17;6.03;;;11.00;82.30;;;;;;5038900;28;20017;-51
2022/02/06 03:41:07;;;;;;;23.25;5.95;;;11.00;81.50;;;;;;5038859;28;20040;-51
2022/02/06 03:46:29;;;;;;;26.40;5.15;;;11.00;82.00;;;;;;5038842;28;20079;-51
2022/02/06 03:49:06;;;;;;;20.95;6.22;;;11.00;81.70;;;;;;5038815;28;20037;-49
2022/02/06 03:51:34;;;;;;;22.80;5.25;;;11.00;81.60;;;;;;5038664;28;20055;-52
2022/02/06 03:54:01;;;;;;;20.55;4.88;;;11.00;82.00;;;;;;5038741;28;20033;-51
2022/02/06 03:56:29;;;;;;;20.73;5.22;;;11.00;81.90;;;;;;5038718;28;20033;-51
2022/02/06 03:58:55;;;;;;;15.65;5.05;;;11.00;81.50;;;;;;5038688;28;20030;-54
2022/02/06 04:01:21;;;;;;;23.23;4.57;;;11.00;81.80;;;;;;5038506;28;20021;-51
2022/02/06 04:03:47;;;;;;;21.92;4.95;;;11.10;81.10;;;;;;5038619;28;20386;-51
2022/02/06 04:06:13;;;;;;;22.00;4.68;;;11.00;81.10;;;;;;5037728;28;20057;-50
2022/02/06 04:08:40;;;;;;;22.90;4.85;;;11.00;81.70;;;;;;5038719;28;20025;-52
2022/02/06 04:11:11;;;;;;;17.55;4.20;;;11.00;81.30;;;;;;5038390;28;20034;-54
2022/02/06 04:13:51;;;;;;;19.15;4.15;;;11.00;81.80;;;;;;5038013;28;20037;-52
2022/02/06 04:16:25;;;;;;;19.70;4.93;;;11.10;81.50;;;;;;5038237;28;20104;-52
2022/02/06 04:18:54;;;;;;;21.38;4.80;;;11.10;82.30;;;;;;5037916;28;20029;-53
2022/02/06 04:21:19;;;;;;;24.23;5.35;;;11.10;82.40;;;;;;5037666;28;20108;-54
2022/02/06 04:23:45;;;;;;;15.95;4.63;;;11.10;82.00;;;;;;5038514;28;20057;-50
2022/02/06 04:26:11;;;;;;;18.92;4.20;;;11.10;81.50;;;;;;5038057;28;20030;-52
2022/02/06 04:28:37;;;;;;;25.40;5.10;;;11.10;82.10;;;;;;5038052;28;20175;-54
2022/02/06 04:31:03;;;;;;;20.83;4.63;;;11.10;82.50;;;;;;5038103;28;20028;-51
2022/02/06 04:33:28;;;;;;;15.02;3.78;;;11.10;82.80;;;;;;5038256;28;20509;-51
2022/02/06 04:35:58;;;;;;;18.45;4.65;;;11.00;83.30;;;;;;5037762;28;20032;-52
2022/02/06 04:46:23;;;;;;;21.58;5.93;;;11.10;81.90;;;;;;5037753;28;20022;-52
2022/02/06 04:49:55;;;;;;;19.00;4.57;;;11.10;83.40;;;;;;5037511;28;20034;-50
2022/02/06 05:13:25;;;;;;;20.77;4.55;;;11.10;84.10;;;;;;5037628;28;20056;-50
2022/02/06 05:24:42;;;;;;;22.30;5.07;;;11.20;84.10;;;;;;5037828;28;20586;-50
2022/02/06 05:32:50;;;;;;;9.32;1.88;;;11.00;83.90;;;;;;5037081;28;20029;-51
2022/02/06 05:35:09;;;;;;;6.20;2.35;;;11.00;81.70;;;;;;5036829;28;20045;-51
2022/02/06 05:37:35;;;;;;;7.38;1.73;;;10.90;82.30;;;;;;5037600;28;20054;-53
2022/02/06 05:40:01;;;;;;;9.00;1.80;;;10.80;81.70;;;;;;5037357;28;20021;-53
2022/02/06 05:42:27;;;;;;;8.77;2.35;;;10.80;83.30;;;;;;5037388;28;20026;-49
2022/02/06 05:44:55;;;;;;;10.25;2.63;;;10.80;82.60;;;;;;5037087;28;20049;-49
2022/02/06 05:47:23;;;;;;;9.77;2.55;;;10.80;82.80;;;;;;5037100;28;20079;-49
2022/02/06 05:49:49;;;;;;;12.48;2.20;;;10.80;84.30;;;;;;5037250;28;20059;-50
2022/02/06 05:52:15;;;;;;;15.85;3.72;;;10.80;84.20;;;;;;5037465;28;20025;-51
2022/02/06 05:54:41;;;;;;;12.07;3.10;;;10.80;85.00;;;;;;5036885;28;20025;-51
2022/02/06 05:57:07;;;;;;;18.55;4.45;;;10.80;85.00;;;;;;5037214;28;20014;-53
2022/02/06 05:59:32;;;;;;;19.70;4.25;;;10.80;84.60;;;;;;5036974;28;20041;-53
2022/02/06 06:01:58;;;;;;;20.20;4.55;;;10.80;84.80;;;;;;5036858;28;20453;-54
2022/02/06 06:04:24;;;;;;;18.13;4.68;;;10.80;85.60;;;;;;5037114;28;20053;-49
2022/02/06 06:06:50;;;;;;;14.10;3.28;;;10.80;86.00;;;;;;5037148;28;20048;-54
2022/02/06 06:09:15;;;;;;;12.02;3.35;;;10.90;84.10;;;;;;5036893;28;20032;-51
2022/02/06 06:11:41;;;;;;;13.10;3.30;;;10.90;84.40;;;;;;5037119;28;20025;-51
2022/02/06 06:14:07;;;;;;;12.18;3.72;;;10.80;84.50;;;;;;5036993;28;20030;-50
2022/02/06 06:16:34;;;;;;;13.40;3.25;;;10.90;84.90;;;;;;5036888;28;20493;-51
2022/02/06 06:19:02;;;;;;;16.65;3.47;;;10.90;85.30;;;;;;5036561;28;20032;-55
2022/02/06 06:21:32;;;;;;;19.52;3.95;;;10.80;85.60;;;;;;5036564;28;20049;-49
2022/02/06 06:23:59;;;;;;;16.05;3.72;;;10.90;85.70;;;;;;5036830;28;20034;-52
2022/02/06 06:26:27;;;;;;;21.58;3.80;;;10.90;83.80;;;;;;5037224;28;20053;-51
2022/02/06 06:28:52;;;;;;;20.50;5.13;;;10.90;85.30;;;;;;5038102;28;20040;-53
2022/02/06 06:31:18;;;;;;;26.10;6.03;;;10.90;86.00;;;;;;5040452;28;20026;-54
2022/02/06 06:33:44;;;;;;;26.08;6.18;;;10.90;85.40;;;;;;5040426;28;20028;-50
2022/02/06 06:36:10;;;;;;;24.95;5.03;;;11.00;86.40;;;;;;5040034;28;20063;-53
2022/02/06 06:38:36;;;;;;;20.50;5.88;;;11.00;85.50;;;;;;5039927;28;20167;-53
2022/02/06 06:41:04;;;;;;;20.27;5.35;;;11.00;85.00;;;;;;5040093;28;20025;-52
2022/02/06 06:43:30;;;;;;;24.20;6.75;;;11.00;85.60;;;;;;5040203;28;20025;-53
2022/02/06 06:45:57;;;;;;;16.40;4.90;;;11.00;85.20;;;;;;5040152;28;20036;-50
2022/02/06 06:48:23;;;;;;;23.23;5.35;;;11.00;84.90;;;;;;5039997;28;20056;-51
2022/02/06 06:50:49;;;;;;;26.80;6.75;;;11.00;85.70;;;;;;5040226;28;20445;-50
2022/02/06 06:53:15;;;;;;;20.27;5.03;;;11.00;85.80;;;;;;5038573;28;20033;-54
2022/02/06 06:55:48;;;;;;;22.67;5.93;;;11.00;86.10;;;;;;5039836;28;20021;-50
2022/02/06 06:58:19;;;;;;;20.70;3.60;;;11.00;85.80;;;;;;5039777;28;20033;-52
2022/02/06 07:03:24;;;;;;;20.65;3.90;;;10.90;83.40;;;;;;5039716;28;20029;-51
2022/02/06 07:05:50;;;;;;;14.13;3.42;;;10.90;81.70;;;;;;5039702;28;20040;-51
2022/02/06 07:08:17;;;;;;;17.92;5.40;;;10.90;81.20;;;;;;5039569;28;20686;-53
2022/02/06 07:10:46;;;;;;;18.27;4.38;;;10.90;82.40;;;;;;5039525;28;20108;-50
2022/02/06 07:13:13;;;;;;;17.88;5.13;;;10.80;83.10;;;;;;5039630;28;20026;-52
2022/02/06 07:15:40;;;;;;;16.60;4.38;;;10.90;82.90;;;;;;5039379;28;20018;-50
2022/02/06 07:18:06;;;;;;;18.13;3.65;;;10.90;82.50;;;;;;5039535;28;20024;-52
2022/02/06 07:20:33;;;;;;;14.30;3.00;;;10.90;82.20;;;;;;5039413;28;20017;-48
2022/02/06 07:23:00;;;;;;;14.40;3.65;;;10.90;82.70;;;;;;5038939;28;20520;-52
2022/02/06 07:25:29;;;;;;;15.27;4.32;;;10.80;83.20;;;;;;5039355;28;20029;-49
2022/02/06 07:27:55;;;;;;;17.25;3.55;;;10.80;82.60;;;;;;5039293;28;20026;-51
2022/02/06 07:30:21;;;;;;;21.08;5.10;;;10.90;83.80;;;;;;5039025;28;20439;-51
2022/02/06 07:32:47;;;;;;;19.70;4.35;;;10.90;83.00;;;;;;5038883;28;20033;-51
2022/02/06 07:35:14;;;;;;;17.70;4.13;;;10.90;83.00;;;;;;5038590;28;20112;-56
2022/02/06 07:37:48;;;;;;;24.63;5.32;;;10.90;84.40;;;;;;5038797;28;20455;-54
2022/02/06 07:40:15;;;;;;;24.25;5.00;;;11.00;84.10;;;;;;5037558;28;20021;-52
2022/02/06 07:42:41;;;;;;;20.90;4.82;;;11.00;83.10;;;;;;5038892;28;20032;-55
2022/02/06 07:45:10;;;;;;;21.23;4.78;;;11.00;83.20;;;;;;5038816;28;20030;-56
2022/02/06 07:47:38;;;;;;;23.92;5.47;;;11.00;84.70;;;;;;5038815;28;20034;-50
2022/02/06 07:50:06;;;;;;;22.67;5.15;;;11.10;84.50;;;;;;5038307;28;20033;-54
2022/02/06 07:52:32;;;;;;;19.85;4.40;;;11.10;83.90;;;;;;5038645;28;20083;-52
2022/02/06 07:54:58;;;;;;;23.95;4.53;;;11.10;84.60;;;;;;5038352;28;20123;-53
2022/02/06 07:57:24;;;;;;;21.88;4.78;;;11.10;84.10;;;;;;5038609;28;20029;-53
2022/02/06 07:59:51;;;;;;;20.27;4.75;;;11.10;84.70;;;;;;5038658;28;20084;-53
2022/02/06 08:02:18;;;;;;;17.95;4.65;;;11.10;84.60;;;;;;5038285;28;20526;-53
2022/02/06 08:04:48;;;;;;;25.98;6.53;;;11.10;84.70;;;;;;5038481;28;20033;-55
2022/02/06 08:07:14;;;;;;;18.65;5.88;;;11.10;85.20;;;;;;5038227;28;20025;-52
2022/02/06 08:12:06;;;;;;;23.75;5.90;;;11.10;85.70;;;;;;5038119;28;20037;-53
2022/02/06 08:17:18;;;;;;;20.55;4.88;;;11.10;86.50;;;;;;5038092;28;20440;-51
2022/02/06 08:19:44;;;;;;;19.08;5.97;;;11.10;86.70;;;;;;5037904;28;20033;-54
2022/02/06 08:22:10;;;;;;;25.15;6.07;;;11.10;85.50;;;;;;5037680;28;20095;-55
2022/02/06 08:24:36;;;;;;;30.95;5.65;;;11.10;86.60;;;;;;5038077;28;20128;-52
2022/02/06 08:27:02;;;;;;;24.00;7.35;;;11.10;86.80;;;;;;5038248;28;20061;-49
2022/02/06 08:29:28;;;;;;;23.83;6.22;;;11.10;85.80;;;;;;5038254;28;20033;-51
2022/02/06 08:31:54;;;;;;;19.90;4.90;;;11.10;86.50;;;;;;5038160;28;20022;-50
2022/02/06 08:34:20;;;;;;;29.02;8.65;;;11.10;85.80;;;;;;5037699;28;20382;-50
2022/02/06 08:36:46;;;;;;;27.58;9.20;;;11.10;86.80;;;;;;5036848;28;20021;-56
2022/02/06 08:39:12;;;;;;;19.38;4.28;;;11.10;86.90;;;;;;5036554;28;20079;-49
2022/02/06 08:41:37;;;;;;;20.60;5.50;;;11.10;86.80;;;;;;5037153;28;20108;-53
2022/02/06 08:44:05;;;;;;;24.23;5.18;;;11.10;86.00;;;;;;5037980;28;20021;-51
2022/02/06 08:46:31;;;;;;;18.92;4.72;;;11.10;86.50;;;;;;5037977;28;20037;-54
2022/02/06 08:48:56;;;;;;;23.90;6.38;;;11.10;85.90;;;;;;5037633;28;20405;-53
2022/02/06 08:51:23;;;;;;;26.27;5.15;;;11.10;86.10;;;;;;5037088;28;20032;-51
2022/02/06 08:53:51;;;;;;;23.92;5.55;;;11.10;86.10;;;;;;5036520;28;20112;-55
2022/02/06 08:56:16;;;;;;;30.17;7.03;;;11.10;85.90;;;;;;5035956;28;20115;-53
2022/02/06 08:58:42;;;;;;;24.65;6.05;;;11.10;84.90;;;;;;5035360;28;20037;-50
2022/02/06 09:01:08;;;;;;;22.48;6.10;;;11.10;85.00;;;;;;5036298;28;20029;-54
2022/02/06 09:03:34;;;;;;;24.90;6.63;;;11.10;85.20;;;;;;5036193;28;20025;-50
2022/02/06 09:05:59;;;;;;;21.23;5.32;;;11.10;84.80;;;;;;5036797;28;20018;-49
2022/02/06 09:08:25;;;;;;;19.13;5.28;;;11.10;84.00;;;;;;5037077;28;20095;-49
2022/02/06 09:10:52;;;;;;;22.58;6.43;;;11.20;84.90;;;;;;5037326;28;20077;-49
2022/02/06 09:13:18;;;;;;;19.70;5.18;;;11.20;84.10;;;;;;5037529;28;20033;-48
2022/02/06 09:15:44;;;;;;;23.42;5.53;;;11.20;84.80;;;;;;5037391;28;20029;-49
2022/02/06 09:18:10;;;;;;;24.52;5.25;;;11.20;84.70;;;;;;5037306;28;20026;-52
2022/02/06 09:20:36;;;;;;;19.42;5.35;;;11.20;84.60;;;;;;5037333;28;20099;-53
2022/02/06 09:23:03;;;;;;;19.58;6.00;;;11.20;84.40;;;;;;5036999;28;20046;-50
2022/02/06 09:25:29;;;;;;;28.42;5.72;;;11.20;84.80;;;;;;5037143;28;20058;-52
2022/02/06 09:27:55;;;;;;;23.42;5.43;;;11.20;84.70;;;;;;5037246;28;20053;-52
2022/02/06 09:30:25;;;;;;;28.90;5.78;;;11.30;84.80;;;;;;5037154;28;20029;-50
2022/02/06 09:35:18;;;;;;;25.00;5.75;;;11.30;85.10;;;;;;5037252;28;20100;-51
2022/02/06 09:37:44;;;;;;;26.80;5.97;;;11.40;84.90;;;;;;5036968;28;20039;-50
2022/02/06 09:40:14;;;;;;;27.17;5.85;;;11.40;85.20;;;;;;5036874;28;20484;-51
2022/02/06 09:42:44;;;;;;;30.00;6.15;;;11.40;85.40;;;;;;5037220;28;20033;-49
2022/02/06 09:45:11;;;;;;;19.58;5.38;;;11.40;85.00;;;;;;5037579;28;20026;-50
2022/02/06 09:47:37;;;;;;;22.08;4.68;;;11.50;84.90;;;;;;5037317;28;20052;-50
2022/02/06 09:50:04;;;;;;;22.83;5.57;;;11.50;84.50;;;;;;5037211;28;20416;-52
2022/02/06 09:52:30;;;;;;;21.55;4.75;;;11.50;84.40;;;;;;5037349;28;20036;-51
2022/02/06 09:55:08;;;;;;;22.33;4.78;;;11.50;84.70;;;;;;5037041;28;20029;-52
2022/02/06 09:57:52;;;;;;;27.95;7.07;;;11.50;84.30;;;;;;5036994;28;20036;-51
2022/02/06 10:00:29;;;;;;;30.83;9.80;;;11.50;84.60;;;;;;5036903;28;20188;-51
2022/02/06 10:03:02;;;;;;;23.30;5.25;;;11.50;84.40;;;;;;5036911;28;20040;-53
2022/02/06 10:05:33;;;;;;;32.72;9.35;;;11.50;85.00;;;;;;5040784;28;20468;-51
2022/02/06 10:08:13;;;;;;;23.83;6.03;;;11.50;85.00;;;;;;5040879;28;20021;-48
2022/02/06 10:11:09;;;;;;;30.35;10.40;;;11.50;84.90;;;;;;5040613;28;20080;-53
2022/02/06 10:13:37;;;;;;;26.92;6.00;;;11.50;84.90;;;;;;5040481;28;20079;-49
2022/02/06 10:16:04;;;;;;;31.95;8.20;;;11.50;85.40;;;;;;5040676;28;20037;-50
2022/02/06 10:18:31;;;;;;;32.78;8.20;;;11.50;85.60;;;;;;5040611;28;20048;-53
2022/02/06 10:20:57;;;;;;;24.52;5.22;;;11.50;85.90;;;;;;5040442;28;20030;-52
2022/02/06 10:23:37;;;;;;;25.60;6.63;;;11.50;86.00;;;;;;5039969;28;20077;-50
2022/02/06 10:26:19;;;;;;;23.58;5.32;;;11.50;86.00;;;;;;5040351;28;20049;-52
2022/02/06 10:28:48;;;;;;;24.95;6.43;;;11.60;84.50;;;;;;5040238;28;20036;-52
2022/02/06 10:31:17;;;;;;;24.30;6.43;;;11.60;85.30;;;;;;5040133;28;20023;-52
2022/02/06 10:33:44;;;;;;;26.25;5.85;;;11.60;85.90;;;;;;5039993;28;20112;-50
2022/02/06 10:36:10;;;;;;;29.98;8.88;;;11.60;85.90;;;;;;5039920;28;20105;-51
2022/02/06 10:38:36;;;;;;;24.65;6.78;;;11.70;85.50;;;;;;5040316;28;20053;-51
2022/02/06 10:41:02;;;;;;;29.77;8.73;;;11.70;85.20;;;;;;5039974;28;20088;-52
2022/02/06 10:43:28;;;;;;;24.08;6.43;;;11.80;84.90;;;;;;5040154;28;20029;-50
2022/02/06 10:46:06;;;;;;;19.63;5.20;;;11.80;84.30;;;;;;5039169;28;20026;-50
2022/02/06 10:48:32;;;;;;;36.10;11.63;;;11.80;84.40;;;;;;5039606;28;20056;-53
2022/02/06 10:50:58;;;;;;;22.52;6.18;;;11.80;84.80;;;;;;5039803;28;20025;-55
2022/02/06 10:53:24;;;;;;;38.42;10.45;;;11.80;85.00;;;;;;5039755;28;20029;-54
2022/02/06 10:55:54;;;;;;;31.17;7.05;;;11.90;84.00;;;;;;5039600;28;20128;-54
2022/02/06 10:58:25;;;;;;;33.17;8.15;;;11.90;84.40;;;;;;5039956;28;20028;-51
2022/02/06 11:00:51;;;;;;;72.97;23.67;;;12.00;84.30;;;;;;5039324;28;20026;-52
2022/02/06 11:03:29;;;;;;;34.65;11.95;;;12.00;84.20;;;;;;5039045;28;20025;-52
2022/02/06 11:06:06;;;;;;;27.75;7.63;;;12.00;84.30;;;;;;5039396;28;20039;-52
2022/02/06 11:08:34;;;;;;;26.95;6.78;;;12.10;83.60;;;;;;5038955;28;20033;-51
2022/02/06 11:11:03;;;;;;;30.75;6.95;;;12.10;83.20;;;;;;5039371;28;20076;-53
2022/02/06 11:13:29;;;;;;;32.78;7.70;;;12.10;83.40;;;;;;5038873;28;20504;-54
2022/02/06 11:15:58;;;;;;;33.67;8.55;;;12.10;83.30;;;;;;5039017;28;20025;-54
2022/02/06 11:18:28;;;;;;;36.20;7.63;;;12.20;82.70;;;;;;5039433;28;20079;-50
2022/02/06 11:21:03;;;;;;;24.80;6.38;;;12.10;83.00;;;;;;5039178;28;20017;-53
2022/02/06 11:23:38;;;;;;;31.13;8.70;;;12.10;82.70;;;;;;5038542;28;20128;-57
2022/02/06 11:26:17;;;;;;;35.00;7.13;;;12.10;82.40;;;;;;5038955;28;20057;-56
2022/02/06 11:28:44;;;;;;;37.65;8.25;;;12.10;82.40;;;;;;5038920;28;20034;-49
2022/02/06 11:31:10;;;;;;;30.92;9.05;;;12.20;83.00;;;;;;5038949;28;20021;-55
2022/02/06 11:33:37;;;;;;;32.53;13.68;;;12.20;82.90;;;;;;5038933;28;20033;-52
2022/02/06 11:36:12;;;;;;;26.13;6.25;;;12.20;82.80;;;;;;5038799;28;20503;-57
2022/02/06 11:45:10;;;;;;;27.98;6.93;;;12.30;82.30;;;;;;5039064;28;20071;-53
2022/02/06 11:47:45;;;;;;;31.70;7.07;;;12.40;82.30;;;;;;5038842;28;20029;-53
2022/02/06 11:50:12;;;;;;;33.10;10.73;;;12.40;82.50;;;;;;5038242;28;20087;-50
2022/02/06 11:52:58;;;;;;;28.75;6.75;;;12.40;82.30;;;;;;5038702;28;20025;-56
2022/02/06 11:55:48;;;;;;;31.20;8.65;;;12.40;81.80;;;;;;5038781;28;20075;-51
2022/02/06 11:58:26;;;;;;;32.72;7.35;;;12.50;82.20;;;;;;5038572;28;20017;-54
2022/02/06 12:01:07;;;;;;;33.10;7.43;;;12.40;81.60;;;;;;5038350;28;20184;-55
2022/02/06 12:04:06;;;;;;;27.33;5.57;;;12.40;81.70;;;;;;5038704;28;20017;-51
2022/02/06 12:06:47;;;;;;;30.20;7.45;;;12.40;81.10;;;;;;5037059;28;20072;-53
2022/02/06 12:09:17;;;;;;;32.72;8.13;;;12.40;81.30;;;;;;5038272;28;20056;-54
2022/02/06 12:12:05;;;;;;;27.27;7.90;;;12.40;81.60;;;;;;5037982;28;20539;-54
2022/02/06 12:14:39;;;;;;;29.50;7.00;;;12.40;82.30;;;;;;5038208;28;20117;-53
2022/02/06 12:17:21;;;;;;;36.90;9.40;;;12.40;82.10;;;;;;5037903;28;20535;-53
2022/02/06 12:20:07;;;;;;;26.10;7.00;;;12.40;81.50;;;;;;5038083;28;20030;-52
2022/02/06 12:22:38;;;;;;;30.13;7.13;;;12.50;81.50;;;;;;5037770;28;20059;-54
2022/02/06 12:25:19;;;;;;;30.17;6.43;;;12.40;81.70;;;;;;5037674;28;20073;-52
2022/02/06 12:27:50;;;;;;;29.95;8.13;;;12.40;82.00;;;;;;5037245;28;20063;-56
2022/02/06 12:30:36;;;;;;;29.05;6.38;;;12.50;81.40;;;;;;5037995;28;20500;-55
2022/02/06 12:33:32;;;;;;;34.50;8.07;;;12.40;81.90;;;;;;5037811;28;20061;-50
2022/02/06 12:38:44;;;;;;;32.75;6.55;;;12.50;81.50;;;;;;5037481;28;20101;-53
2022/02/06 12:41:29;;;;;;;29.92;7.78;;;12.50;81.30;;;;;;5037728;28;20021;-55
2022/02/06 12:44:02;;;;;;;26.80;7.05;;;12.50;81.80;;;;;;5037582;28;20049;-52
2022/02/06 12:46:28;;;;;;;33.17;6.90;;;12.40;81.50;;;;;;5037501;28;20037;-53
2022/02/06 12:49:00;;;;;;;30.40;6.85;;;12.40;81.50;;;;;;5037495;28;20041;-52
2022/02/06 12:51:29;;;;;;;36.90;6.82;;;12.40;81.70;;;;;;5037497;28;20049;-51
2022/02/06 12:54:08;;;;;;;33.30;7.10;;;12.40;81.80;;;;;;5037832;28;20029;-51
2022/02/06 12:56:34;;;;;;;26.65;6.22;;;12.40;81.90;;;;;;5037526;28;20037;-53
2022/02/06 12:59:01;;;;;;;25.08;7.78;;;12.40;82.10;;;;;;5037454;28;20025;-54
2022/02/06 13:01:45;;;;;;;30.08;6.13;;;12.40;82.00;;;;;;5037379;28;20064;-53
2022/02/06 13:04:16;;;;;;;26.73;6.53;;;12.40;81.90;;;;;;5037550;28;20096;-53
2022/02/06 13:06:51;;;;;;;29.05;6.38;;;12.50;81.60;;;;;;5037165;28;20025;-55
2022/02/06 13:09:31;;;;;;;30.75;8.35;;;12.50;81.00;;;;;;5037537;28;20217;-50
2022/02/06 13:12:09;;;;;;;32.90;6.70;;;12.40;81.50;;;;;;5037010;28;20033;-53
2022/02/06 13:20:04;;;;;;;27.30;6.47;;;12.50;81.60;;;;;;5037046;28;20017;-53
2022/02/06 13:31:17;;;;;;;32.63;7.47;;;12.50;82.10;;;;;;5037193;28;20028;-53
2022/02/06 13:36:24;;;;;;;28.88;7.32;;;12.60;81.90;;;;;;5036886;28;20026;-53
2022/02/06 13:38:53;;;;;;;29.67;6.72;;;12.60;81.80;;;;;;5040262;28;20415;-53
2022/02/06 13:41:24;;;;;;;31.63;6.93;;;12.60;81.60;;;;;;5041056;28;20028;-54
2022/02/06 13:43:52;;;;;;;29.42;8.18;;;12.70;81.80;;;;;;5040735;28;20113;-53
2022/02/06 13:46:25;;;;;;;27.60;6.90;;;12.70;81.60;;;;;;5040925;28;20485;-56
2022/02/06 13:48:51;;;;;;;28.45;6.63;;;12.60;81.60;;;;;;5040995;28;20025;-55
2022/02/06 13:51:33;;;;;;;35.75;6.88;;;12.60;81.20;;;;;;5040999;28;20026;-51
2022/02/06 13:54:05;;;;;;;32.42;8.20;;;12.60;81.60;;;;;;5040245;28;20481;-55
2022/02/06 13:56:33;;;;;;;30.38;7.20;;;12.60;81.60;;;;;;5041032;28;20547;-52
2022/02/06 13:59:18;;;;;;;27.92;6.60;;;12.60;81.50;;;;;;5040805;28;20112;-50
2022/02/06 14:01:47;;;;;;;;;;;12.70;81.20;;;;;;5041221;28;20025;-52
2022/02/06 14:04:33;;;;;;;29.48;7.60;;;12.60;81.10;;;;;;5040950;28;19927;-53
2022/02/06 14:07:15;;;;;;;34.15;7.25;;;12.60;81.50;;;;;;5040651;28;20100;-52
2022/02/06 14:12:20;;;;;;;27.65;7.68;;;12.60;81.20;;;;;;5040399;28;20035;-52
2022/02/06 14:14:56;;;;;;;31.00;7.78;;;12.60;81.50;;;;;;5040254;28;20029;-56
2022/02/06 14:17:28;;;;;;;30.40;7.13;;;12.50;81.50;;;;;;5040252;28;20034;-56
2022/02/06 14:19:57;;;;;;;23.40;7.57;;;12.50;81.40;;;;;;5040259;28;20029;-52
2022/02/06 14:22:38;;;;;;;27.92;7.78;;;12.50;81.70;;;;;;5039885;28;20049;-56
2022/02/06 14:25:05;;;;;;;27.92;7.40;;;12.50;82.00;;;;;;5040121;28;20448;-52
2022/02/06 14:27:34;;;;;;;34.35;6.20;;;12.50;82.50;;;;;;5040329;28;20045;-55
2022/02/06 14:30:11;;;;;;;22.77;6.72;;;12.50;83.40;;;;;;5040013;28;20481;-53
2022/02/06 14:33:14;;;;;;;23.10;5.82;;;12.50;83.20;;;;;;5040435;28;20033;-55
2022/02/06 14:36:03;;;;;;;29.27;6.45;;;12.40;84.00;;;;;;5038704;28;20033;-54
2022/02/06 14:43:47;;;;;;;30.10;6.38;;;12.50;83.00;;;;;;5040854;28;20128;-52
2022/02/06 14:46:12;;;;;;;32.05;7.03;;;12.50;82.30;;;;;;5040479;28;20022;-51
2022/02/06 14:48:38;;;;;;;27.83;6.00;;;12.50;82.40;;;;;;5040449;28;20104;-52
2022/02/06 14:51:07;;;;;;;31.40;7.40;;;12.60;82.30;;;;;;5039751;28;20026;-53
2022/02/06 14:53:33;;;;;;;27.88;6.10;;;12.60;82.30;;;;;;5040179;28;20021;-52
2022/02/06 14:55:59;;;;;;;27.60;6.25;;;12.60;82.10;;;;;;5040398;28;20090;-55
2022/02/06 14:58:26;;;;;;;28.75;6.90;;;12.50;81.80;;;;;;5040019;28;20393;-56
2022/02/06 15:00:52;;;;;;;25.63;5.88;;;12.50;82.00;;;;;;5040133;28;20033;-53
2022/02/06 15:03:19;;;;;;;31.50;6.95;;;12.50;82.00;;;;;;5040201;28;20030;-53
2022/02/06 15:05:47;;;;;;;28.20;6.10;;;12.60;82.10;;;;;;5039990;28;20098;-55
2022/02/06 15:08:13;;;;;;;22.52;6.10;;;12.60;82.30;;;;;;5039865;28;20112;-51
2022/02/06 15:10:39;;;;;;;25.58;6.00;;;12.60;81.90;;;;;;5039905;28;20025;-50
2022/02/06 15:13:09;;;;;;;36.70;7.32;;;12.60;81.90;;;;;;5040039;28;20029;-54
2022/02/06 15:15:39;;;;;;;25.05;6.25;;;12.60;81.90;;;;;;5040289;28;20148;-51
2022/02/06 15:20:50;;;;;;;21.20;5.47;;;12.50;82.10;;;;;;5039950;28;20057;-56
2022/02/06 15:23:16;;;;;;;23.83;5.88;;;12.50;82.30;;;;;;5039267;28;20080;-56
2022/02/06 15:25:42;;;;;;;25.90;5.60;;;12.50;82.60;;;;;;5039777;28;20017;-54
2022/02/06 15:28:08;;;;;;;27.55;5.25;;;12.50;82.40;;;;;;5039529;28;20546;-55
2022/02/06 15:30:33;;;;;;;22.25;5.90;;;12.50;82.70;;;;;;5039733;28;20484;-55
2022/02/06 15:32:59;;;;;;;25.23;5.25;;;12.50;82.40;;;;;;5039800;28;20037;-51
2022/02/06 15:35:25;;;;;;;19.45;5.40;;;12.50;82.40;;;;;;5039374;28;20470;-56